Time;durP1;ratioP1;P1;durP2;ratioP2;P2;SDS_P1;SDS_P2;PMS_P1;PMS_P2;Temp;Humidity;BMP_temperature;BMP_pressure;BME280_temperature;BME280_humidity;BME280_pressure;Samples;Min_cycle;Max_cycle;Signal;HPM_P1;HPM_P2
2023/03/05 00:00:16;;;;;;;9.23;2.43;;;;;;;5.98;88.34;102174.56;5258168;28;20044;-73
2023/03/05 00:02:47;;;;;;;13.37;3.37;;;;;;;5.88;88.64;102173.00;5273735;28;20071;-73
2023/03/05 00:05:19;;;;;;;10.90;2.93;;;;;;;5.53;91.94;102176.19;5277762;28;20051;-73
2023/03/05 00:07:50;;;;;;;10.60;3.57;;;;;;;5.74;90.25;102170.66;5278066;28;20094;-73
2023/03/05 00:10:21;;;;;;;12.53;3.73;;;;;;;5.94;88.94;102178.09;5273174;28;20545;-74
2023/03/05 00:12:52;;;;;;;8.53;2.53;;;;;;;5.95;88.66;102179.81;5273461;28;20020;-73
2023/03/05 00:15:24;;;;;;;7.83;3.47;;;;;;;5.81;88.90;102157.50;5272022;28;20058;-73
2023/03/05 00:17:55;;;;;;;10.30;2.50;;;;;;;5.96;88.02;102171.13;5275399;28;20039;-73
2023/03/05 00:20:26;;;;;;;7.40;2.37;;;;;;;5.89;88.41;102165.19;5273321;28;20569;-73
2023/03/05 00:22:58;;;;;;;9.23;2.83;;;;;;;5.89;87.44;102174.72;5273091;28;20028;-73
2023/03/05 00:25:29;;;;;;;14.50;3.50;;;;;;;5.92;87.35;102161.66;5273159;28;20071;-73
2023/03/05 00:28:00;;;;;;;10.53;3.30;;;;;;;5.48;90.63;102171.97;5272949;28;20024;-73
2023/03/05 00:30:33;;;;;;;10.53;3.50;;;;;;;5.84;88.39;102163.53;5275568;28;20038;-73
2023/03/05 00:33:05;;;;;;;17.33;4.73;;;;;;;5.78;87.75;102165.38;5257712;28;20135;-73
2023/03/05 00:35:44;;;;;;;13.33;3.50;;;;;;;5.85;87.00;102152.28;5276006;28;20027;-73
2023/03/05 00:38:16;;;;;;;12.37;3.20;;;;;;;5.72;87.75;102157.69;5272724;28;20035;-73
2023/03/05 00:40:49;;;;;;;12.30;3.47;;;;;;;5.90;86.79;102153.03;5272122;28;20036;-73
2023/03/05 00:43:21;;;;;;;12.57;3.33;;;;;;;5.88;86.70;102142.66;5271329;28;20028;-74
2023/03/05 00:45:52;;;;;;;9.23;3.13;;;;;;;5.81;86.71;102131.50;5258807;28;20036;-74
2023/03/05 00:48:24;;;;;;;14.40;3.10;;;;;;;5.68;86.80;102130.03;5269570;28;20106;-75
2023/03/05 00:50:55;;;;;;;13.97;2.83;;;;;;;5.63;87.75;102121.47;5274223;28;20027;-75
2023/03/05 00:53:27;;;;;;;13.83;3.50;;;;;;;5.77;86.98;102134.19;5272253;28;20052;-76
2023/03/05 00:55:58;;;;;;;11.37;2.90;;;;;;;5.31;89.74;102109.00;5274717;28;20502;-75
2023/03/05 00:58:30;;;;;;;9.87;2.77;;;;;;;5.68;88.24;102127.44;5274126;28;20028;-75
2023/03/05 01:01:02;;;;;;;9.33;3.20;;;;;;;5.70;87.76;102146.47;5259282;28;20056;-76
2023/03/05 01:03:34;;;;;;;9.33;2.87;;;;;;;5.57;87.84;102110.28;5275098;28;20035;-76
2023/03/05 01:06:09;;;;;;;11.43;2.83;;;;;;;5.37;90.20;102112.38;5273134;28;20056;-75
2023/03/05 01:08:42;;;;;;;13.57;3.17;;;;;;;5.73;87.73;102138.59;5271801;28;20028;-74
2023/03/05 01:11:14;;;;;;;11.13;2.93;;;;;;;5.68;87.94;102124.81;5274139;28;20437;-74
2023/03/05 01:13:46;;;;;;;14.37;3.57;;;;;;;5.75;88.02;102125.56;5273199;28;20036;-74
2023/03/05 01:16:17;;;;;;;14.40;3.37;;;;;;;5.77;87.96;102119.47;5269952;28;20045;-74
2023/03/05 01:18:49;;;;;;;11.57;2.80;;;;;;;5.65;87.36;102098.91;5271899;28;20028;-74
2023/03/05 01:21:20;;;;;;;14.63;4.33;;;;;;;5.53;87.87;102098.22;5282580;28;20037;-75
2023/03/05 01:23:52;;;;;;;14.23;3.00;;;;;;;5.76;87.94;102112.53;5273408;28;20650;-75
2023/03/05 01:26:23;;;;;;;10.53;2.83;;;;;;;5.43;89.55;102100.16;5251072;28;20078;-75
2023/03/05 01:28:54;;;;;;;12.10;3.33;;;;;;;5.63;88.14;102087.66;5273381;28;20037;-75
2023/03/05 01:31:26;;;;;;;17.73;4.23;;;;;;;5.26;91.48;102100.44;5278090;28;20032;-75
2023/03/05 01:33:59;;;;;;;14.50;3.43;;;;;;;5.41;91.31;102098.47;5270434;28;20032;-75
2023/03/05 01:36:30;;;;;;;11.23;3.20;;;;;;;5.26;93.90;102095.25;5259046;28;20776;-75
2023/03/05 01:39:02;;;;;;;12.67;3.37;;;;;;;5.51;91.54;102076.63;5251405;28;20102;-75
2023/03/05 01:41:34;;;;;;;13.07;3.07;;;;;;;5.41;91.48;102054.31;5263810;28;20090;-75
2023/03/05 01:44:05;;;;;;;13.97;3.00;;;;;;;5.51;91.98;102079.22;5257212;28;20035;-75
2023/03/05 01:46:37;;;;;;;9.33;2.73;;;;;;;5.50;92.55;102076.66;5246165;28;20535;-75
2023/03/05 01:49:16;;;;;;;11.07;3.10;;;;;;;5.24;94.03;102089.22;5265186;28;20479;-75
2023/03/05 01:51:55;;;;;;;15.40;4.43;;;;;;;5.52;92.87;102073.13;5256997;28;20033;-75
2023/03/05 01:54:40;;;;;;;12.00;2.80;;;;;;;5.44;93.44;102065.50;5257174;28;20312;-75
2023/03/05 01:57:19;;;;;;;12.87;3.53;;;;;;;5.50;92.93;102067.09;5256144;28;20177;-75
2023/03/05 01:59:59;;;;;;;11.37;2.90;;;;;;;5.54;92.51;102063.56;5257532;28;20052;-75
2023/03/05 02:02:32;;;;;;;12.57;2.87;;;;;;;5.52;91.70;102041.94;5257221;28;20449;-74
2023/03/05 02:05:19;;;;;;;9.33;3.13;;;;;;;5.47;92.42;102035.97;5241373;28;20082;-75
2023/03/05 02:07:50;;;;;;;12.33;3.03;;;;;;;5.35;93.38;102044.88;5272580;28;20559;-75
2023/03/05 02:10:25;;;;;;;15.50;3.30;;;;;;;4.95;95.74;102015.28;5259604;28;20021;-74
2023/03/05 02:13:00;;;;;;;15.10;2.75;;;;;;;5.41;92.82;102039.53;5256197;28;20534;-74
2023/03/05 02:15:33;;;;;;;11.03;3.20;;;;;;;5.49;91.84;102042.00;5261904;28;20020;-74
2023/03/05 02:18:06;;;;;;;12.03;2.60;;;;;;;5.56;91.19;102033.22;5265535;28;20033;-74
2023/03/05 02:20:50;;;;;;;14.40;3.57;;;;;;;5.41;91.76;102023.13;5256911;28;20021;-75
2023/03/05 02:23:25;;;;;;;10.40;2.67;;;;;;;5.36;91.39;102002.41;5266164;28;20096;-75
2023/03/05 02:25:56;;;;;;;8.88;3.35;;;;;;;5.31;91.43;101992.09;5256501;28;20096;-74
2023/03/05 02:28:34;;;;;;;13.23;2.57;;;;;;;5.59;91.14;102021.03;5256814;28;20118;-75
2023/03/05 02:31:24;;;;;;;11.23;2.60;;;;;;;5.54;90.83;102003.81;5256784;28;20027;-76
2023/03/05 02:33:58;;;;;;;9.53;3.07;;;;;;;5.06;92.88;102017.69;5268905;28;20623;-75
2023/03/05 02:36:30;;;;;;;11.80;3.70;;;;;;;5.39;91.97;102009.28;5256152;28;20024;-75
2023/03/05 02:39:01;;;;;;;11.70;3.17;;;;;;;5.32;91.83;102005.97;5256160;28;20025;-75
2023/03/05 02:41:33;;;;;;;12.23;2.87;;;;;;;5.17;92.03;101994.97;5255800;28;20024;-75
2023/03/05 02:44:04;;;;;;;10.97;3.43;;;;;;;5.10;92.17;101976.94;5268204;28;20067;-75
2023/03/05 02:46:36;;;;;;;13.37;3.13;;;;;;;5.44;92.00;102005.72;5258248;28;20071;-75
2023/03/05 02:49:07;;;;;;;12.77;3.13;;;;;;;5.13;93.68;102002.84;5273717;28;20082;-75
2023/03/05 02:51:39;;;;;;;11.80;2.93;;;;;;;5.47;92.42;102007.41;5260494;28;20024;-76
2023/03/05 02:54:10;;;;;;;8.23;3.10;;;;;;;5.51;91.68;101998.66;5256239;28;20060;-76
2023/03/05 02:56:42;;;;;;;12.83;3.20;;;;;;;5.32;91.43;101977.38;5270993;28;20098;-76
2023/03/05 02:59:13;;;;;;;7.73;2.00;;;;;;;5.50;91.74;101985.72;5265620;28;20114;-76
2023/03/05 03:01:44;;;;;;;9.70;2.50;;;;;;;5.43;91.33;101985.81;5262484;28;20074;-75
2023/03/05 03:04:16;;;;;;;13.77;2.90;;;;;;;5.47;91.67;101989.22;5255687;28;20090;-74
2023/03/05 03:06:47;;;;;;;8.90;2.47;;;;;;;5.48;91.65;101987.47;5269520;28;20444;-74
2023/03/05 03:09:19;;;;;;;10.87;3.17;;;;;;;5.35;91.29;101961.72;5255912;28;20488;-75
2023/03/05 03:11:50;;;;;;;13.43;3.83;;;;;;;5.42;92.16;101972.84;5251262;28;20041;-76
2023/03/05 03:14:21;;;;;;;8.23;2.60;;;;;;;5.18;92.55;101944.72;5275901;28;20077;-77
2023/03/05 03:16:53;;;;;;;6.17;2.50;;;;;;;5.27;92.92;101964.47;5266020;28;20040;-76
2023/03/05 03:19:24;;;;;;;13.77;3.60;;;;;;;5.27;92.53;101958.44;5282410;28;20157;-74
2023/03/05 03:21:55;;;;;;;13.77;2.33;;;;;;;5.27;92.45;101963.63;5280871;28;20031;-76
2023/03/05 03:24:29;;;;;;;13.37;2.47;;;;;;;5.23;92.82;101956.78;5267865;28;20057;-76
2023/03/05 03:27:00;;;;;;;9.17;2.67;;;;;;;5.21;92.53;101962.00;5258836;28;20033;-75
2023/03/05 03:29:32;;;;;;;9.80;2.53;;;;;;;5.12;92.91;101955.22;5260188;28;20097;-76
2023/03/05 03:32:03;;;;;;;9.60;3.27;;;;;;;4.96;93.28;101932.16;5273658;28;20035;-75
2023/03/05 03:34:35;;;;;;;7.90;2.80;;;;;;;5.10;93.36;101940.59;5263843;28;20039;-75
2023/03/05 03:37:07;;;;;;;8.07;2.93;;;;;;;5.08;93.25;101943.19;5258044;28;20017;-75
2023/03/05 03:39:39;;;;;;;8.47;2.70;;;;;;;4.94;93.44;101920.94;5258134;28;20025;-75
2023/03/05 03:42:10;;;;;;;8.17;2.97;;;;;;;5.04;93.75;101928.56;5268899;28;20031;-75
2023/03/05 03:44:41;;;;;;;13.87;3.30;;;;;;;4.98;94.06;101921.75;5272711;28;20085;-76
2023/03/05 03:47:13;;;;;;;8.00;2.90;;;;;;;4.94;93.75;101910.56;5273541;28;20024;-75
2023/03/05 03:49:44;;;;;;;12.37;3.60;;;;;;;4.99;93.93;101928.66;5244384;28;20044;-75
2023/03/05 03:52:16;;;;;;;15.33;3.37;;;;;;;4.91;93.89;101909.75;5254756;28;20101;-75
2023/03/05 03:54:49;;;;;;;15.43;3.37;;;;;;;4.90;93.97;101921.03;5278339;28;20119;-75
2023/03/05 03:57:20;;;;;;;11.47;3.83;;;;;;;4.77;94.79;101902.22;5261598;28;20395;-75
2023/03/05 03:59:52;;;;;;;13.83;4.00;;;;;;;4.76;94.53;101900.50;5257395;28;20057;-75
2023/03/05 04:02:23;;;;;;;15.67;3.97;;;;;;;4.94;94.73;101920.09;5254783;28;20127;-75
2023/03/05 04:04:54;;;;;;;15.83;4.57;;;;;;;4.91;94.95;101915.81;5268332;28;20095;-75
2023/03/05 04:07:26;;;;;;;12.00;4.07;;;;;;;4.95;94.54;101912.28;5254922;28;20033;-75
2023/03/05 04:09:57;;;;;;;12.50;3.90;;;;;;;4.73;94.22;101872.88;5254926;28;20064;-75
2023/03/05 04:12:29;;;;;;;15.80;5.10;;;;;;;4.68;94.09;101877.28;5254012;28;20032;-74
2023/03/05 04:15:00;;;;;;;14.67;3.33;;;;;;;4.98;94.19;101911.34;5268280;28;20373;-75
2023/03/05 04:17:31;;;;;;;15.40;5.03;;;;;;;4.94;94.07;101910.56;5254523;28;20098;-75
2023/03/05 04:20:05;;;;;;;15.50;4.37;;;;;;;4.92;94.61;101895.91;5258221;28;20016;-75
2023/03/05 04:22:37;;;;;;;16.02;5.00;;;;;;;4.94;94.20;101907.13;5264290;28;20035;-75
2023/03/05 04:25:09;;;;;;;15.23;4.57;;;;;;;4.88;94.40;101886.44;5254164;28;20024;-75
2023/03/05 04:27:41;;;;;;;15.50;5.17;;;;;;;4.90;95.00;101889.88;5254105;28;20025;-75
2023/03/05 04:30:16;;;;;;;13.93;5.13;;;;;;;4.77;94.65;101889.25;5253973;28;20099;-75
2023/03/05 04:32:47;;;;;;;16.40;4.53;;;;;;;4.57;95.01;101851.56;5264444;28;20020;-75
2023/03/05 04:35:19;;;;;;;18.67;4.90;;;;;;;4.55;97.33;101893.09;5257896;28;20040;-75
2023/03/05 04:37:50;;;;;;;11.03;4.10;;;;;;;4.71;95.70;101885.88;5254664;28;20627;-75
2023/03/05 04:40:22;;;;;;;10.53;3.90;;;;;;;4.51;95.13;101847.31;5267520;28;20060;-74
2023/03/05 04:42:53;;;;;;;12.83;4.03;;;;;;;4.78;95.25;101884.00;5253979;28;20098;-74
2023/03/05 04:45:24;;;;;;;11.73;4.70;;;;;;;4.77;94.93;101878.84;5252560;28;20071;-73
2023/03/05 04:47:56;;;;;;;14.67;3.77;;;;;;;4.74;95.45;101876.31;5258021;28;20113;-74
2023/03/05 04:50:27;;;;;;;12.03;4.03;;;;;;;4.55;95.48;101842.94;5273076;28;20103;-74
2023/03/05 04:52:59;;;;;;;13.80;4.17;;;;;;;4.49;96.02;101885.41;5254422;28;20045;-74
2023/03/05 04:55:30;;;;;;;11.43;4.40;;;;;;;4.77;95.44;101882.31;5253750;28;20108;-74
2023/03/05 04:58:02;;;;;;;15.00;4.03;;;;;;;4.31;98.54;101869.28;5267035;28;20148;-74
2023/03/05 05:00:33;;;;;;;10.97;4.90;;;;;;;4.62;96.27;101859.25;5253338;28;20056;-74
2023/03/05 05:03:05;;;;;;;13.83;4.60;;;;;;;4.52;96.16;101846.44;5253859;28;20032;-74
2023/03/05 05:05:36;;;;;;;11.03;4.00;;;;;;;4.67;95.83;101865.19;5254115;28;20049;-74
2023/03/05 05:08:09;;;;;;;10.33;3.87;;;;;;;4.44;96.23;101820.63;5267587;28;20030;-75
2023/03/05 05:10:40;;;;;;;12.37;4.80;;;;;;;4.63;96.12;101842.78;5235180;28;20029;-75
2023/03/05 05:13:12;;;;;;;12.23;4.23;;;;;;;4.69;96.16;101855.66;5260323;28;20342;-75
2023/03/05 05:15:43;;;;;;;17.97;4.67;;;;;;;4.69;96.16;101860.84;5252521;28;20016;-75
2023/03/05 05:18:14;;;;;;;17.23;5.30;;;;;;;4.39;99.46;101855.31;5253437;28;20028;-75
2023/03/05 05:20:46;;;;;;;14.10;5.97;;;;;;;4.58;97.18;101856.72;5253726;28;20033;-75
2023/03/05 05:23:18;;;;;;;14.80;4.97;;;;;;;4.67;96.97;101855.69;5267473;28;20024;-75
2023/03/05 05:26:00;;;;;;;11.57;4.90;;;;;;;4.59;97.60;101827.28;5252992;28;20777;-75
2023/03/05 05:28:34;;;;;;;12.83;5.00;;;;;;;4.67;100.00;101854.81;5253626;28;20033;-74
2023/03/05 05:31:07;;;;;;;14.97;5.47;;;;;;;4.62;100.00;101844.53;5253148;28;20134;-75
2023/03/05 05:33:38;;;;;;;12.13;5.03;;;;;;;4.72;100.00;101853.88;5271322;28;20404;-75
2023/03/05 05:36:13;;;;;;;16.53;5.73;;;;;;;4.73;100.00;101844.31;5258992;28;20032;-75
2023/03/05 05:38:44;;;;;;;14.90;5.03;;;;;;;4.47;100.00;101817.97;5254813;28;20032;-75
2023/03/05 05:41:17;;;;;;;13.30;5.23;;;;;;;4.41;100.00;101806.88;5262320;28;20025;-74
2023/03/05 05:43:48;;;;;;;14.27;5.10;;;;;;;4.48;100.00;101824.03;5256976;28;20033;-74
2023/03/05 05:46:21;;;;;;;15.40;6.47;;;;;;;4.53;100.00;101837.78;5236390;28;20082;-75
2023/03/05 05:48:52;;;;;;;10.93;4.43;;;;;;;4.59;100.00;101842.84;5259582;28;20401;-75
2023/03/05 05:51:24;;;;;;;11.27;4.80;;;;;;;4.67;100.00;101839.25;5262586;28;20020;-75
2023/03/05 05:53:55;;;;;;;9.63;4.30;;;;;;;4.60;100.00;101839.38;5258478;28;20029;-74
2023/03/05 05:56:26;;;;;;;12.70;4.87;;;;;;;4.36;100.00;101830.31;5252638;28;20571;-75
2023/03/05 05:58:58;;;;;;;10.20;4.83;;;;;;;4.51;100.00;101816.19;5253101;28;20056;-75
2023/03/05 06:01:31;;;;;;;14.23;4.60;;;;;;;4.51;100.00;101817.91;5261305;28;20016;-74
2023/03/05 06:04:02;;;;;;;15.07;5.23;;;;;;;4.57;100.00;101826.44;5272963;28;20036;-75
2023/03/05 06:06:34;;;;;;;19.63;7.73;;;;;;;4.57;100.00;101818.66;5258018;28;20028;-74
2023/03/05 06:09:05;;;;;;;14.23;5.67;;;;;;;4.51;100.00;101807.53;5262910;28;20471;-75
2023/03/05 06:11:37;;;;;;;13.50;5.50;;;;;;;4.46;100.00;101802.44;5283463;28;20028;-75
2023/03/05 06:14:10;;;;;;;11.07;5.90;;;;;;;4.52;100.00;101817.88;5276012;28;20143;-75
2023/03/05 06:16:42;;;;;;;9.40;4.37;;;;;;;4.28;100.00;101773.38;5257287;28;20140;-74
2023/03/05 06:19:14;;;;;;;14.23;5.60;;;;;;;4.51;100.00;101804.94;5258997;28;20452;-74
2023/03/05 06:21:46;;;;;;;17.77;4.83;;;;;;;4.51;100.00;101811.00;5257651;28;20029;-73
2023/03/05 06:24:18;;;;;;;14.37;5.23;;;;;;;4.51;100.00;101813.59;5270814;28;20082;-74
2023/03/05 06:26:49;;;;;;;12.67;5.13;;;;;;;4.38;100.00;101786.19;5256313;28;20021;-74
2023/03/05 06:29:20;;;;;;;10.03;4.90;;;;;;;4.53;100.00;101810.97;5240112;28;20025;-75
2023/03/05 06:31:52;;;;;;;20.07;6.37;;;;;;;4.46;100.00;101805.91;5262539;28;20063;-73
2023/03/05 06:34:23;;;;;;;13.20;5.73;;;;;;;4.26;100.00;101782.91;5266865;28;20067;-73
2023/03/05 06:36:54;;;;;;;12.80;5.60;;;;;;;4.49;100.00;101810.16;5261888;28;20117;-74
2023/03/05 06:39:26;;;;;;;12.53;5.67;;;;;;;4.36;100.00;101804.38;5257105;28;20024;-74
2023/03/05 06:41:57;;;;;;;11.33;5.77;;;;;;;4.09;100.00;101799.63;5255913;28;20464;-74
2023/03/05 06:44:28;;;;;;;16.60;5.53;;;;;;;4.40;100.00;101815.53;5264690;28;20052;-74
2023/03/05 06:46:59;;;;;;;12.57;5.27;;;;;;;4.35;100.00;101813.88;5254338;28;20033;-74
2023/03/05 06:49:31;;;;;;;15.07;6.27;;;;;;;4.22;100.00;101795.06;5264254;28;20051;-75
2023/03/05 06:52:03;;;;;;;17.87;6.10;;;;;;;4.16;100.00;101810.75;5276124;28;20784;-73
2023/03/05 06:54:35;;;;;;;12.93;4.80;;;;;;;4.27;100.00;101810.56;5249556;28;20025;-73
2023/03/05 06:57:06;;;;;;;20.03;5.87;;;;;;;4.33;100.00;101802.66;5251247;28;20074;-74
2023/03/05 06:59:37;;;;;;;16.70;6.30;;;;;;;4.32;100.00;101782.81;5263024;28;20047;-75
2023/03/05 07:02:12;;;;;;;11.83;5.30;;;;;;;4.46;100.00;101810.22;5267941;28;20729;-74
2023/03/05 07:04:43;;;;;;;9.43;4.90;;;;;;;4.50;100.00;101806.72;5267986;28;20119;-73
2023/03/05 07:07:15;;;;;;;8.73;4.83;;;;;;;4.36;100.00;101815.56;5290091;28;20099;-73
2023/03/05 07:09:49;;;;;;;11.03;4.40;;;;;;;4.46;100.00;101805.03;5271741;28;20037;-74
2023/03/05 07:12:20;;;;;;;8.18;4.13;;;;;;;4.23;100.00;101801.13;5268668;28;20035;-75
2023/03/05 07:14:51;;;;;;;7.83;4.10;;;;;;;4.51;100.00;101816.19;5269053;28;20527;-74
2023/03/05 07:17:23;;;;;;;8.67;4.10;;;;;;;4.48;100.00;101795.50;5281401;28;20032;-74
2023/03/05 07:19:54;;;;;;;8.57;3.83;;;;;;;4.45;100.00;101792.97;5280549;28;20043;-75
2023/03/05 07:22:25;;;;;;;6.40;3.73;;;;;;;4.55;100.00;101810.06;5276053;28;20119;-73
2023/03/05 07:24:56;;;;;;;10.67;3.93;;;;;;;4.61;100.00;101803.88;5273386;28;20500;-74
2023/03/05 07:27:28;;;;;;;11.33;4.67;;;;;;;4.55;100.00;101791.91;5255120;28;20028;-74
2023/03/05 07:29:59;;;;;;;10.37;4.27;;;;;;;4.61;100.00;101793.50;5273946;28;20032;-74
2023/03/05 07:32:34;;;;;;;6.67;3.83;;;;;;;4.58;100.00;101788.38;5259854;28;20100;-74
2023/03/05 07:35:06;;;;;;;8.03;3.30;;;;;;;4.58;100.00;101778.88;5255200;28;20025;-74
2023/03/05 07:37:37;;;;;;;8.97;4.27;;;;;;;4.41;100.00;101796.50;5255122;28;20071;-74
2023/03/05 07:40:09;;;;;;;10.17;3.70;;;;;;;4.64;100.00;101793.47;5276125;28;20074;-75
2023/03/05 07:42:42;;;;;;;9.60;3.37;;;;;;;4.68;100.00;101795.09;5265678;28;20079;-74
2023/03/05 07:45:13;;;;;;;5.50;3.53;;;;;;;4.68;100.00;101791.66;5256505;28;20581;-75
2023/03/05 07:47:45;;;;;;;9.60;3.20;;;;;;;4.72;100.00;101794.16;5275026;28;20028;-74
2023/03/05 07:50:16;;;;;;;11.17;3.47;;;;;;;4.70;100.00;101787.28;5260145;28;20036;-74
2023/03/05 07:52:47;;;;;;;9.27;3.63;;;;;;;4.65;100.00;101778.75;5272763;28;20052;-75
2023/03/05 07:55:19;;;;;;;7.10;2.87;;;;;;;4.65;100.00;101776.16;5271136;28;20113;-75
2023/03/05 07:57:50;;;;;;;9.60;3.37;;;;;;;4.65;100.00;101770.97;5275100;28;20021;-74
2023/03/05 08:00:22;;;;;;;6.63;2.80;;;;;;;4.77;100.00;101778.50;5245434;28;20125;-74
2023/03/05 08:02:53;;;;;;;7.53;3.47;;;;;;;4.86;100.00;101786.97;5280164;28;20050;-74
2023/03/05 08:05:24;;;;;;;4.17;3.00;;;;;;;4.72;100.00;101786.38;5274910;28;20494;-74
2023/03/05 08:07:55;;;;;;;6.10;3.10;;;;;;;4.57;100.00;101740.81;5267754;28;20042;-74
2023/03/05 08:10:27;;;;;;;7.57;2.90;;;;;;;4.81;100.00;101763.72;5268087;28;20056;-74
2023/03/05 08:12:58;;;;;;;6.27;2.53;;;;;;;4.89;100.00;101768.75;5270759;28;20472;-74
2023/03/05 08:15:30;;;;;;;8.13;2.90;;;;;;;4.78;100.00;101756.00;5263218;28;20127;-74
2023/03/05 08:18:02;;;;;;;6.50;2.50;;;;;;;4.83;100.00;101762.78;5271270;28;20035;-75
2023/03/05 08:20:36;;;;;;;6.27;2.27;;;;;;;5.03;100.00;101778.84;5263976;28;20036;-75
2023/03/05 08:23:07;;;;;;;5.25;2.08;;;;;;;5.04;100.00;101775.38;5269993;28;20040;-75
2023/03/05 08:25:38;;;;;;;7.53;2.80;;;;;;;5.00;100.00;101755.53;5267530;28;20021;-74
2023/03/05 08:28:10;;;;;;;5.80;2.87;;;;;;;5.18;100.00;101767.28;5256706;28;20040;-74
2023/03/05 08:30:41;;;;;;;8.83;3.10;;;;;;;5.15;100.00;101762.16;5268336;28;20028;-75
2023/03/05 08:33:13;;;;;;;5.23;2.63;;;;;;;5.15;100.00;101775.16;5260165;28;20070;-75
2023/03/05 08:35:45;;;;;;;6.60;2.30;;;;;;;5.15;100.00;101767.34;5248028;28;20060;-75
2023/03/05 08:38:16;;;;;;;6.93;2.70;;;;;;;5.19;100.00;101764.63;5264034;28;20086;-75
2023/03/05 08:40:47;;;;;;;7.00;2.80;;;;;;;5.23;100.00;101756.78;5268898;28;20028;-75
2023/03/05 08:43:18;;;;;;;6.97;3.37;;;;;;;5.23;100.00;101760.25;5264437;28;20114;-75
2023/03/05 08:45:52;;;;;;;9.13;3.17;;;;;;;5.26;100.00;101754.09;5260369;28;20028;-74
2023/03/05 08:48:23;;;;;;;10.23;3.53;;;;;;;5.25;100.00;101742.88;5264602;28;20017;-75
2023/03/05 08:50:55;;;;;;;5.70;2.67;;;;;;;5.21;100.00;101736.03;5271333;28;20140;-74
2023/03/05 08:53:26;;;;;;;4.83;2.70;;;;;;;5.28;100.00;101735.00;5274414;28;20021;-75
2023/03/05 08:55:58;;;;;;;6.60;2.60;;;;;;;5.36;100.00;101741.78;5275081;28;20035;-75
2023/03/05 08:58:29;;;;;;;6.17;1.93;;;;;;;5.43;100.00;101745.91;5263468;28;20031;-73
2023/03/05 09:01:01;;;;;;;6.33;2.33;;;;;;;5.41;100.00;101732.13;5269278;28;20460;-74
2023/03/05 09:03:32;;;;;;;5.10;1.80;;;;;;;5.45;100.00;101732.00;5256709;28;20577;-73
2023/03/05 09:06:07;;;;;;;5.87;2.00;;;;;;;5.38;100.00;101732.19;5258569;28;20024;-74
2023/03/05 09:08:39;;;;;;;3.03;1.77;;;;;;;5.52;100.00;101743.09;5254469;28;20108;-74
2023/03/05 09:11:12;;;;;;;5.90;1.90;;;;;;;5.36;100.00;101724.44;5257161;28;20050;-74
2023/03/05 09:13:44;;;;;;;4.27;2.40;;;;;;;5.32;100.00;101723.63;5265451;28;20024;-74
2023/03/05 09:16:17;;;;;;;5.50;2.23;;;;;;;5.60;100.00;101731.69;5241730;28;20036;-74
2023/03/05 09:18:48;;;;;;;4.87;2.20;;;;;;;5.59;100.00;101729.97;5255422;28;20364;-75
2023/03/05 09:21:20;;;;;;;4.97;2.10;;;;;;;5.49;100.00;101701.63;5256595;28;20028;-74
2023/03/05 09:23:51;;;;;;;4.27;1.80;;;;;;;5.66;100.00;101721.13;5255996;28;20060;-75
2023/03/05 09:26:23;;;;;;;5.17;1.80;;;;;;;5.78;100.00;101718.22;5235005;28;20033;-74
2023/03/05 09:28:54;;;;;;;5.53;2.30;;;;;;;5.63;100.00;101714.28;5269919;28;20027;-74
2023/03/05 09:31:25;;;;;;;5.57;1.27;;;;;;;5.55;100.00;101692.81;5261318;28;20104;-75
2023/03/05 09:33:57;;;;;;;4.90;1.50;;;;;;;5.42;100.00;101674.06;5253279;28;20100;-74
2023/03/05 09:36:30;;;;;;;5.73;2.10;;;;;;;5.79;100.00;101700.88;5253025;28;20384;-73
2023/03/05 09:39:03;;;;;;;3.20;1.33;;;;;;;5.90;100.00;101708.41;5255021;28;20044;-73
2023/03/05 09:41:52;;;;;;;3.70;1.60;;;;;;;5.95;100.00;101708.28;5252361;28;20029;-74
2023/03/05 09:45:01;;;;;;;3.87;1.60;;;;;;;6.20;100.00;101705.91;5252892;28;20123;-75
2023/03/05 09:47:53;;;;;;;5.30;2.20;;;;;;;6.33;100.00;101705.56;5257230;28;20039;-75
2023/03/05 09:50:41;;;;;;;3.53;1.40;;;;;;;6.46;100.00;101696.50;5259748;28;20032;-75
2023/03/05 09:53:27;;;;;;;3.33;2.00;;;;;;;6.40;100.00;101696.69;5268345;28;20021;-75
2023/03/05 09:56:10;;;;;;;3.77;1.67;;;;;;;6.46;100.00;101701.72;5258519;28;20031;-75
2023/03/05 09:58:46;;;;;;;3.27;1.37;;;;;;;6.59;100.00;101690.94;5249463;28;20472;-74
2023/03/05 10:01:19;;;;;;;3.93;1.10;;;;;;;6.69;100.00;101687.16;5246637;28;20372;-74
2023/03/05 10:03:56;;;;;;;4.60;1.93;;;;;;;6.48;100.00;101692.13;5275166;28;20028;-74
2023/03/05 10:06:35;;;;;;;6.60;1.57;;;;;;;6.59;100.00;101690.94;5265075;28;20356;-75
2023/03/05 10:09:16;;;;;;;3.97;1.70;;;;;;;6.29;100.00;101658.81;5270085;28;20475;-74
2023/03/05 10:12:13;;;;;;;3.17;1.60;;;;;;;6.31;100.00;101665.72;5271230;28;20017;-74
2023/03/05 10:14:44;;;;;;;3.33;2.00;;;;;;;6.35;100.00;101680.34;5251865;28;20361;-75
2023/03/05 10:17:25;;;;;;;3.67;1.73;;;;;;;6.32;100.00;101651.84;5262335;28;20032;-73
2023/03/05 10:20:21;;;;;;;2.43;1.57;;;;;;;6.54;99.29;101673.69;5262791;28;20044;-74
2023/03/05 10:23:14;;;;;;;3.63;1.93;;;;;;;6.52;97.45;101670.31;5271385;28;20067;-75
2023/03/05 10:26:04;;;;;;;6.40;1.87;;;;;;;6.52;97.88;101640.81;5260302;28;20107;-76
2023/03/05 10:28:54;;;;;;;2.87;1.57;;;;;;;6.62;95.99;101663.09;5252471;28;20098;-74
2023/03/05 10:31:58;;;;;;;5.23;1.50;;;;;;;6.66;95.11;101658.63;5271000;28;20361;-73
2023/03/05 10:35:07;;;;;;;3.47;1.73;;;;;;;6.61;92.61;101655.31;5266350;28;20024;-74
2023/03/05 10:37:56;;;;;;;4.57;1.53;;;;;;;6.35;96.90;101651.75;5173122;28;20037;-73
2023/03/05 10:40:45;;;;;;;7.60;1.87;;;;;;;6.36;97.12;101643.03;5251613;28;20515;-74
2023/03/05 10:43:45;;;;;;;4.23;1.70;;;;;;;6.41;98.09;101656.75;5257804;28;20053;-74
2023/03/05 10:46:20;;;;;;;4.93;1.80;;;;;;;6.27;100.00;101660.59;5246331;28;20016;-74
2023/03/05 10:49:00;;;;;;;8.90;1.77;;;;;;;5.99;100.00;101661.34;5277952;28;20032;-74
2023/03/05 10:51:40;;;;;;;2.43;1.30;;;;;;;5.89;100.00;101678.94;5277882;28;20028;-73
2023/03/05 10:54:24;;;;;;;5.37;1.40;;;;;;;5.57;100.00;101675.44;5277176;28;20028;-74
2023/03/05 10:57:15;;;;;;;2.60;1.27;;;;;;;5.85;100.00;101666.91;5277889;28;20035;-74
2023/03/05 10:59:59;;;;;;;1.40;1.03;;;;;;;5.86;100.00;101649.56;5277495;28;20079;-74
2023/03/05 11:02:31;;;;;;;5.75;1.25;;;;;;;5.93;100.00;101645.91;5282786;28;20024;-73
2023/03/05 11:05:03;;;;;;;2.03;0.93;;;;;;;5.95;100.00;101645.88;5264633;28;20032;-74
2023/03/05 11:07:37;;;;;;;4.70;1.40;;;;;;;6.08;100.00;101633.41;5281530;28;20399;-74
2023/03/05 11:10:16;;;;;;;1.70;0.93;;;;;;;6.19;100.00;101630.50;5277790;28;20028;-74
2023/03/05 11:12:48;;;;;;;1.87;0.67;;;;;;;6.05;100.00;101616.16;5259615;28;20043;-74
2023/03/05 11:15:26;;;;;;;1.30;0.80;;;;;;;6.19;100.00;101615.75;5283455;28;20032;-72
2023/03/05 11:18:17;;;;;;;1.77;0.90;;;;;;;6.35;100.00;101610.97;5281602;28;20328;-73
2023/03/05 11:20:50;;;;;;;7.00;1.07;;;;;;;6.37;100.00;101616.13;5270611;28;20048;-74
2023/03/05 11:23:22;;;;;;;7.53;1.03;;;;;;;6.28;100.00;101609.44;5278211;28;20031;-74
2023/03/05 11:26:00;;;;;;;2.50;0.70;;;;;;;6.37;100.00;101609.16;5281689;28;20052;-74
2023/03/05 11:28:35;;;;;;;1.23;0.70;;;;;;;6.54;100.00;101611.25;5298297;28;20548;-74
2023/03/05 11:31:23;;;;;;;2.80;0.90;;;;;;;6.73;100.00;101600.28;5280354;28;20052;-74
2023/03/05 11:34:07;;;;;;;1.80;0.87;;;;;;;6.71;100.00;101591.66;5280820;28;20095;-74
2023/03/05 11:36:41;;;;;;;1.47;1.03;;;;;;;6.68;100.00;101599.56;5265173;28;20059;-74
2023/03/05 11:39:18;;;;;;;2.80;1.03;;;;;;;6.82;100.00;101595.69;5275774;28;20491;-74
2023/03/05 11:41:57;;;;;;;2.27;0.93;;;;;;;6.89;100.00;101585.00;5276689;28;20036;-74
2023/03/05 11:44:49;;;;;;;1.93;1.10;;;;;;;7.04;100.00;101598.44;5276035;28;20074;-74
2023/03/05 11:47:43;;;;;;;2.73;1.20;;;;;;;7.00;100.00;101589.00;5276419;28;20043;-73
2023/03/05 11:50:14;;;;;;;1.90;0.75;;;;;;;6.89;100.00;101590.22;5258401;28;20468;-73
2023/03/05 11:52:57;;;;;;;1.97;0.80;;;;;;;6.93;100.00;101582.31;5276312;28;20024;-73
2023/03/05 11:55:39;;;;;;;4.03;1.00;;;;;;;6.97;100.00;101576.94;5289477;28;20050;-74